Terminal Aerodrome Forecast
Issued by NWS

Home | Current Version | Previous Version | Text Only | Print | Product List | Glossary On
Versions: 1 2 3 4 5 6 7 8 9 10 11 12 13 14
011
FTUS42 KMLB 281303 AAA
TAFSUA
TAF AMD
KSUA 281303Z 2813/2912 15007KT P6SM SCT015
      TEMPO 2813/2814 BKN015
     FM281400 14011KT P6SM SCT025
     FM281700 12014G22KT P6SM FEW030
     FM290100 12011KT P6SM FEW035=

USA.gov is the U.S. government's official web portal to all federal, state and local government web resources and services.